Date,TemperatureHighF,TemperatureAvgF,TemperatureLowF,DewpointHighF,DewpointAvgF,DewpointLowF,HumidityHigh,HumidityAvg,HumidityLow,PressureMaxIn,PressureMinIn,WindSpeedMaxMPH,WindSpeedAvgMPH,GustSpeedMaxMPH,PrecipitationSumIn
2013-2-1,17.1,10.0,2.6,14.0,3.8,-2.0,88,76,67,30.50,30.26,22,6,22,0.00
2013-2-2,26.2,20.1,13.2,24.0,17.4,9.0,93,89,81,30.34,30.09,14,6,20,0.00
2013-2-3,25.7,17.5,10.4,19.0,12.1,5.0,90,79,64,30.18,30.07,11,5,23,0.00
2013-2-4,29.1,24.7,21.0,25.0,22.2,19.0,94,90,82,30.17,29.94,9,3,15,0.03
2013-2-5,31.7,26.2,16.1,30.0,23.6,14.0,95,90,80,30.17,29.90,18,5,20,0.00
2013-2-6,36.2,31.2,21.6,29.0,24.8,18.0,90,77,68,30.35,30.17,13,5,17,0.04
2013-2-7,44.4,35.6,30.3,38.0,32.5,27.0,97,88,77,30.22,29.91,15,5,22,0.16
2013-2-8,34.2,30.5,28.5,33.0,28.3,26.0,97,91,80,30.46,29.95,26,12,34,0.00
2013-2-9,37.5,31.8,28.2,30.0,27.1,24.0,92,83,75,30.49,30.21,14,5,18,0.00
2013-2-10,49.9,40.2,31.2,48.0,37.2,26.0,96,89,78,30.21,29.63,20,9,31,0.21
2013-2-11,48.1,35.2,30.2,41.0,27.7,24.0,78,74,71,30.12,29.65,29,11,35,0.00
2013-2-12,31.2,27.8,20.0,25.0,22.6,18.0,91,81,76,30.20,30.04,15,5,23,0.00
2013-2-13,45.1,31.7,19.2,35.0,27.1,17.0,94,84,64,30.04,29.82,14,3,16,0.00
2013-2-14,42.4,36.4,31.0,35.0,30.2,23.0,93,79,61,30.06,29.77,21,7,24,0.00
2013-2-15,32.7,29.2,24.2,28.0,20.9,13.0,91,72,47,30.26,30.06,19,7,24,0.00
2013-2-16,24.4,19.1,14.5,21.0,10.3,5.0,87,69,53,30.27,30.21,20,8,23,0.00
2013-2-17,29.2,21.3,10.0,17.0,9.3,4.0,84,61,42,30.33,30.17,9,5,16,0.00
2013-2-18,52.8,40.2,25.7,45.0,33.1,16.0,95,76,63,30.17,29.53,24,12,35,0.30
2013-2-19,34.5,18.7,14.1,33.0,13.4,8.0,93,79,73,30.26,29.62,21,12,31,0.00
2013-2-20,27.2,18.5,10.7,20.0,11.6,5.0,85,75,57,30.46,30.27,13,7,19,0.00
2013-2-21,27.6,26.1,23.6,23.0,21.0,20.0,92,81,76,30.46,30.11,16,6,31,0.00
2013-2-22,33.6,28.6,23.0,33.0,26.7,21.0,97,92,80,30.11,29.93,12,6,21,0.02
2013-2-23,28.8,26.8,24.7,25.0,21.5,20.0,87,80,70,30.07,30.02,12,4,18,0.00
2013-2-24,37.3,27.0,14.9,26.0,21.1,13.0,93,79,59,30.25,30.07,7,2,10,0.03
2013-2-25,43.0,32.3,19.7,31.0,25.9,18.0,93,78,60,30.29,30.05,16,4,21,0.00
2013-2-26,34.9,33.6,32.7,33.0,30.0,26.0,96,87,70,30.05,29.56,22,8,32,0.54
2013-2-27,35.1,33.3,32.7,34.0,32.4,32.0,98,97,96,29.74,29.56,11,4,15,0.39
2013-2-28,36.8,33.3,30.5,35.0,31.8,28.0,97,94,87,30.10,29.74,25,12,28,0.11